createdAt,value
2023-05-09T03:48:35.342Z,7.30
2023-05-09T03:51:03.035Z,7.50
2023-05-09T03:53:32.515Z,7.90
2023-05-09T03:55:59.579Z,8.20
2023-05-09T03:58:27.319Z,8.50
2023-05-09T04:00:54.784Z,8.80
2023-05-09T04:03:23.483Z,9.00
2023-05-09T04:05:52.101Z,9.10
2023-05-09T04:08:29.506Z,9.30
2023-05-09T04:10:56.474Z,9.40
2023-05-09T04:13:24.323Z,9.80
2023-05-09T04:15:51.655Z,10.00
2023-05-09T04:18:18.506Z,10.20
2023-05-09T04:20:46.472Z,10.20
2023-05-09T04:23:14.064Z,10.20
2023-05-09T04:25:41.167Z,10.30
2023-05-09T04:28:08.368Z,10.50
2023-05-09T04:30:35.582Z,10.80
2023-05-09T04:33:04.803Z,10.90
2023-05-09T04:35:32.360Z,11.00
2023-05-09T04:37:59.330Z,11.50
2023-05-09T04:40:27.111Z,11.80
2023-05-09T04:42:58.985Z,11.70
2023-05-09T04:45:28.463Z,11.80
2023-05-09T04:47:57.754Z,12.30
2023-05-09T04:50:24.765Z,12.50
2023-05-09T04:52:51.894Z,12.50
2023-05-09T04:55:19.631Z,12.40
2023-05-09T04:57:48.817Z,12.70
2023-05-09T05:00:19.439Z,13.00
2023-05-09T05:02:54.027Z,13.20
2023-05-09T05:05:25.942Z,12.90
2023-05-09T05:07:54.605Z,13.00
2023-05-09T05:10:30.093Z,12.80
2023-05-09T05:13:10.043Z,12.90
2023-05-09T05:15:41.899Z,12.90
2023-05-09T05:18:09.809Z,12.60
2023-05-09T05:20:36.874Z,12.70
2023-05-09T05:23:08.124Z,13.10
2023-05-09T05:25:42.485Z,13.00
2023-05-09T05:28:09.569Z,12.80
2023-05-09T05:30:40.922Z,12.90
2023-05-09T05:33:11.276Z,13.20
2023-05-09T05:35:39.067Z,13.10
2023-05-09T05:38:06.225Z,13.20
2023-05-09T05:40:33.042Z,13.30
2023-05-09T05:43:06.119Z,13.60
2023-05-09T05:45:35.180Z,13.50
2023-05-09T05:48:04.916Z,13.50
2023-05-09T05:50:32.264Z,13.90
2023-05-09T05:53:00.048Z,14.00
2023-05-09T05:55:27.116Z,14.10
2023-05-09T05:57:56.741Z,14.50
2023-05-09T06:00:23.907Z,14.30
2023-05-09T06:03:00.668Z,14.50
2023-05-09T06:05:44.106Z,14.50
2023-05-09T06:08:11.760Z,14.50
2023-05-09T06:10:38.648Z,14.70
2023-05-09T06:13:05.528Z,14.80
2023-05-09T06:15:33.113Z,14.90
2023-05-09T06:18:00.429Z,15.00
2023-05-09T06:20:27.862Z,15.20
2023-05-09T06:22:54.726Z,15.30
2023-05-09T06:25:21.585Z,15.70
2023-05-09T06:27:48.311Z,15.90
2023-05-09T06:30:25.349Z,15.80
2023-05-09T06:32:54.055Z,15.40
2023-05-09T06:35:22.452Z,15.50
2023-05-09T06:37:49.641Z,15.80
2023-05-09T06:40:17.296Z,16.10
2023-05-09T06:42:55.760Z,16.40
2023-05-09T06:45:25.185Z,16.90
2023-05-09T06:47:52.321Z,16.90
2023-05-09T06:50:19.428Z,16.90
2023-05-09T06:52:46.181Z,17.60
2023-05-09T06:55:13.175Z,18.00
2023-05-09T06:57:43.090Z,17.20
2023-05-09T07:00:10.709Z,16.50
2023-05-09T07:02:41.754Z,16.50
2023-05-09T07:05:10.172Z,16.30
2023-05-09T07:07:36.952Z,16.90
2023-05-09T07:10:11.378Z,17.20
2023-05-09T07:12:39.151Z,17.10
2023-05-09T07:15:06.756Z,17.40
2023-05-09T07:17:33.607Z,17.30
2023-05-09T07:20:00.531Z,17.30
2023-05-09T07:22:28.760Z,17.10
2023-05-09T07:24:57.524Z,17.10
2023-05-09T07:27:24.342Z,17.10
2023-05-09T07:29:52.482Z,17.50
2023-05-09T07:32:19.959Z,17.20
2023-05-09T07:34:46.857Z,17.20
2023-05-09T07:37:15.435Z,17.80
2023-05-09T07:39:43.220Z,17.70
2023-05-09T07:42:10.008Z,17.60
2023-05-09T07:44:36.797Z,17.70
2023-05-09T07:47:06.260Z,17.50
2023-05-09T07:49:33.072Z,17.60
2023-05-09T07:51:59.923Z,17.40
2023-05-09T07:54:26.837Z,17.30
2023-05-09T07:56:53.743Z,17.30
2023-05-09T07:59:20.837Z,17.40
2023-05-09T08:01:47.647Z,17.60
2023-05-09T08:04:14.506Z,17.80
2023-05-09T08:06:41.300Z,17.80
2023-05-09T08:09:08.029Z,17.90
2023-05-09T08:11:38.592Z,17.30
2023-05-09T08:14:05.457Z,17.10
2023-05-09T08:16:32.432Z,17.20
2023-05-09T08:18:59.499Z,17.60
2023-05-09T08:21:26.591Z,17.40
2023-05-09T08:23:53.389Z,17.30
2023-05-09T08:26:20.132Z,17.50
2023-05-09T08:28:46.913Z,17.70
2023-05-09T08:31:13.724Z,18.10
2023-05-09T08:33:41.929Z,18.40
2023-05-09T08:36:09.075Z,18.80
2023-05-09T08:38:36.426Z,18.70
2023-05-09T08:41:03.480Z,18.90
2023-05-09T08:43:31.513Z,18.80
2023-05-09T08:46:00.578Z,18.40
2023-05-09T08:48:28.840Z,18.20
2023-05-09T08:50:56.571Z,17.80
2023-05-09T08:53:23.675Z,18.10
2023-05-09T08:55:50.912Z,18.10
2023-05-09T08:58:19.749Z,18.80
2023-05-09T09:00:47.723Z,18.30
2023-05-09T09:03:15.034Z,18.30
2023-05-09T09:05:42.946Z,18.30
2023-05-09T09:08:11.124Z,18.20
2023-05-09T09:10:42.794Z,18.30
2023-05-09T09:13:12.033Z,18.70
2023-05-09T09:15:40.502Z,18.80
2023-05-09T09:18:10.202Z,18.60
2023-05-09T09:20:57.857Z,18.90
2023-05-09T09:23:26.379Z,18.90
2023-05-09T09:26:02.102Z,19.40
2023-05-09T09:28:29.442Z,18.60
2023-05-09T09:30:56.597Z,18.70
2023-05-09T09:33:26.210Z,18.90
2023-05-09T09:35:54.623Z,19.00
2023-05-09T09:38:23.332Z,19.20
2023-05-09T09:40:57.320Z,19.10
2023-05-09T09:43:28.777Z,18.80
2023-05-09T09:45:57.000Z,18.70
2023-05-09T09:48:31.005Z,19.00
2023-05-09T09:50:57.906Z,19.10
2023-05-09T09:53:30.165Z,18.90
2023-05-09T09:55:57.109Z,19.00
2023-05-09T09:58:26.864Z,19.50
2023-05-09T10:01:09.693Z,19.60
2023-05-09T10:03:42.094Z,19.50
2023-05-09T10:06:13.611Z,19.30
2023-05-09T10:08:41.573Z,19.20
2023-05-09T10:11:09.733Z,19.10
2023-05-09T10:13:38.452Z,19.50
2023-05-09T10:16:06.335Z,19.80
2023-05-09T10:18:34.468Z,20.00
2023-05-09T10:21:03.618Z,20.00
2023-05-09T10:23:32.669Z,20.00
2023-05-09T10:26:27.322Z,20.00
2023-05-09T10:28:57.008Z,19.50
2023-05-09T10:31:28.588Z,19.40
2023-05-09T10:33:56.004Z,19.40
2023-05-09T10:36:26.468Z,19.50
2023-05-09T10:38:55.040Z,19.70
2023-05-09T10:41:22.747Z,20.00
2023-05-09T10:43:49.591Z,20.10
2023-05-09T10:46:17.283Z,20.30
2023-05-09T10:48:44.836Z,20.30
2023-05-09T10:51:13.206Z,20.00
2023-05-09T10:53:50.826Z,20.00
2023-05-09T10:56:31.777Z,20.70
2023-05-09T10:58:59.414Z,20.60
2023-05-09T11:01:39.082Z,20.30
2023-05-09T11:04:11.515Z,20.60
2023-05-09T11:06:45.300Z,20.40
2023-05-09T11:09:28.874Z,20.20
2023-05-09T11:12:17.508Z,20.20
2023-05-09T11:14:46.805Z,20.40
2023-05-09T11:17:27.456Z,20.20
2023-05-09T11:19:59.134Z,20.10
2023-05-09T11:22:28.554Z,19.80
2023-05-09T11:25:05.127Z,20.20
2023-05-09T11:27:47.893Z,20.00
2023-05-09T11:30:20.846Z,20.00
2023-05-09T11:32:58.908Z,20.00
2023-05-09T11:35:28.617Z,20.10
2023-05-09T11:38:06.463Z,20.10
2023-05-09T11:40:34.835Z,20.10
2023-05-09T11:43:02.211Z,20.30
2023-05-09T11:45:33.534Z,20.40
2023-05-09T11:48:08.616Z,21.00
2023-05-09T11:50:35.513Z,20.60
2023-05-09T11:53:02.250Z,20.80
2023-05-09T11:55:30.362Z,20.60
2023-05-09T11:57:58.862Z,20.20
2023-05-09T12:00:26.747Z,20.10
2023-05-09T12:02:54.054Z,20.20
2023-05-09T12:05:24.227Z,20.10
2023-05-09T12:07:55.229Z,20.30
2023-05-09T12:10:23.176Z,20.20
2023-05-09T12:12:51.908Z,20.20
2023-05-09T12:15:19.834Z,20.30
2023-05-09T12:17:50.370Z,20.40
2023-05-09T12:20:18.631Z,20.10
2023-05-09T12:22:52.452Z,20.00
2023-05-09T12:25:19.187Z,20.10
2023-05-09T12:27:46.025Z,20.20
2023-05-09T12:30:15.967Z,20.20
2023-05-09T12:32:43.576Z,20.10
2023-05-09T12:35:11.209Z,20.10
2023-05-09T12:37:38.584Z,20.30
2023-05-09T12:40:12.975Z,20.50
2023-05-09T12:42:43.247Z,20.60
2023-05-09T12:45:11.048Z,20.70
2023-05-09T12:47:39.107Z,20.70
2023-05-09T12:50:07.452Z,20.60
2023-05-09T12:52:39.614Z,20.60
2023-05-09T12:55:12.393Z,20.70
2023-05-09T12:57:40.582Z,20.80
2023-05-09T13:00:12.142Z,20.80
2023-05-09T13:02:41.990Z,20.70
2023-05-09T13:05:15.906Z,20.60
2023-05-09T13:07:47.513Z,20.70
2023-05-09T13:10:25.998Z,20.60
2023-05-09T13:12:53.416Z,20.50
2023-05-09T13:15:21.676Z,20.40
2023-05-09T13:17:52.468Z,20.40
2023-05-09T13:20:19.799Z,20.50
2023-05-09T13:22:46.868Z,20.50
2023-05-09T13:25:13.717Z,20.70
2023-05-09T13:27:40.670Z,20.60
2023-05-09T13:30:08.508Z,20.60
2023-05-09T13:32:36.611Z,20.60
2023-05-09T13:35:06.537Z,20.70
2023-05-09T13:37:36.325Z,20.80
2023-05-09T13:40:04.263Z,20.70
2023-05-09T13:42:34.179Z,20.40
2023-05-09T13:45:01.273Z,20.60
2023-05-09T13:47:28.166Z,20.60
2023-05-09T13:49:54.952Z,20.50
2023-05-09T13:52:21.710Z,20.40
2023-05-09T13:54:48.482Z,20.50
2023-05-09T13:57:15.237Z,20.50
2023-05-09T13:59:45.644Z,20.30
2023-05-09T14:02:12.925Z,20.30
2023-05-09T14:04:40.655Z,20.50
2023-05-09T14:07:07.454Z,20.70
2023-05-09T14:09:39.853Z,20.70
2023-05-09T14:12:06.951Z,20.50
2023-05-09T14:14:33.940Z,20.50
2023-05-09T14:17:01.346Z,20.40
2023-05-09T14:19:28.697Z,20.20
2023-05-09T14:21:55.499Z,20.20
2023-05-09T14:24:22.224Z,20.20
2023-05-09T14:26:48.916Z,20.20
2023-05-09T14:29:16.699Z,20.20
2023-05-09T14:31:43.415Z,20.10
2023-05-09T14:34:10.627Z,20.30
2023-05-09T14:36:37.529Z,20.30
2023-05-09T14:39:05.574Z,20.40
2023-05-09T14:41:32.628Z,20.40
2023-05-09T14:43:59.433Z,20.30
2023-05-09T14:46:26.245Z,20.30
2023-05-09T14:48:52.995Z,20.30
2023-05-09T14:51:19.810Z,20.20
2023-05-09T14:53:47.216Z,20.40
2023-05-09T14:56:14.203Z,20.40
2023-05-09T14:58:41.006Z,20.50
2023-05-09T15:01:07.868Z,20.40
2023-05-09T15:03:34.706Z,20.50
2023-05-09T15:06:01.729Z,20.70
2023-05-09T15:08:28.472Z,20.50
2023-05-09T15:10:55.251Z,20.50
2023-05-09T15:13:22.130Z,20.50
2023-05-09T15:15:49.002Z,20.20
2023-05-09T15:18:18.293Z,20.20
2023-05-09T15:20:45.093Z,20.30
2023-05-09T15:23:13.033Z,20.20
2023-05-09T15:25:43.141Z,20.20
2023-05-09T15:28:09.815Z,20.20
2023-05-09T15:30:38.777Z,20.20
2023-05-09T15:33:05.734Z,20.00
2023-05-09T15:35:32.549Z,20.00
2023-05-09T15:38:00.036Z,19.90
2023-05-09T15:40:29.867Z,19.90
2023-05-09T15:42:59.592Z,19.90
2023-05-09T15:45:37.838Z,19.90
2023-05-09T15:48:04.920Z,19.90
2023-05-09T15:50:31.743Z,19.80
2023-05-09T15:52:58.436Z,19.80
2023-05-09T15:55:27.438Z,19.70
2023-05-09T15:57:55.292Z,19.60
2023-05-09T16:00:22.380Z,19.50
2023-05-09T16:02:50.168Z,19.50
2023-05-09T16:05:19.732Z,19.50
2023-05-09T16:07:47.077Z,19.50
2023-05-09T16:10:14.430Z,19.50
2023-05-09T16:12:41.479Z,19.40
2023-05-09T16:15:09.610Z,19.30
2023-05-09T16:17:36.324Z,19.40
2023-05-09T16:20:03.665Z,19.30
2023-05-09T16:22:30.479Z,19.20
2023-05-09T16:24:57.286Z,19.20
2023-05-09T16:27:24.095Z,19.10
2023-05-09T16:29:50.984Z,19.10
2023-05-09T16:32:17.779Z,19.00
2023-05-09T16:34:44.554Z,19.10
2023-05-09T16:37:11.441Z,19.10
2023-05-09T16:39:38.289Z,19.00
2023-05-09T16:42:05.531Z,19.10
2023-05-09T16:44:32.302Z,19.00
2023-05-09T16:46:59.103Z,19.00
2023-05-09T16:49:25.942Z,19.00
2023-05-09T16:51:52.856Z,19.00
2023-05-09T16:54:19.805Z,19.00
2023-05-09T16:56:46.716Z,18.90
2023-05-09T16:59:13.563Z,18.80
2023-05-09T17:01:40.393Z,18.80
2023-05-09T17:04:07.252Z,18.80
2023-05-09T17:06:34.282Z,18.60
2023-05-09T17:09:01.315Z,18.70
2023-05-09T17:11:28.442Z,18.70
2023-05-09T17:13:55.380Z,18.60
2023-05-09T17:16:22.244Z,18.60
2023-05-09T17:18:52.097Z,18.60
2023-05-09T17:21:20.182Z,18.50
2023-05-09T17:23:47.001Z,18.50
2023-05-09T17:26:13.913Z,18.50
2023-05-09T17:28:40.702Z,18.50
2023-05-09T17:31:07.565Z,18.50
2023-05-09T17:33:34.402Z,18.40
2023-05-09T17:36:01.526Z,18.30
2023-05-09T17:38:28.412Z,18.30
2023-05-09T17:40:55.079Z,18.30
2023-05-09T17:43:22.217Z,18.20
2023-05-09T17:45:49.980Z,18.20
2023-05-09T17:48:16.877Z,18.20
2023-05-09T17:50:43.867Z,18.10
2023-05-09T17:53:10.725Z,18.00
2023-05-09T17:55:37.660Z,17.90
2023-05-09T17:58:04.568Z,17.70
2023-05-09T18:00:31.514Z,17.60
2023-05-09T18:03:00.687Z,17.70
2023-05-09T18:05:28.091Z,17.60
2023-05-09T18:07:55.056Z,17.40
2023-05-09T18:10:22.219Z,17.40
2023-05-09T18:12:49.512Z,17.20
2023-05-09T18:15:16.371Z,17.20
2023-05-09T18:17:43.224Z,17.00
2023-05-09T18:20:10.272Z,17.00
2023-05-09T18:22:37.376Z,16.80
2023-05-09T18:25:04.423Z,16.80
2023-05-09T18:27:31.336Z,16.70
2023-05-09T18:29:58.191Z,16.70
2023-05-09T18:32:25.039Z,16.50
2023-05-09T18:34:52.312Z,16.40
2023-05-09T18:37:21.339Z,16.30
2023-05-09T18:39:48.802Z,16.30
2023-05-09T18:42:16.472Z,16.10
2023-05-09T18:44:43.505Z,16.00
2023-05-09T18:47:10.478Z,16.00
2023-05-09T18:49:38.576Z,15.90
2023-05-09T18:52:07.668Z,16.00
2023-05-09T18:54:36.415Z,15.90
2023-05-09T18:57:03.459Z,15.80
2023-05-09T18:59:30.520Z,15.60
2023-05-09T19:01:57.457Z,15.60
2023-05-09T19:04:25.513Z,15.50
2023-05-09T19:06:52.653Z,15.40
2023-05-09T19:09:19.493Z,15.30
2023-05-09T19:11:46.712Z,15.30
2023-05-09T19:14:13.485Z,15.30
2023-05-09T19:16:40.347Z,15.20
2023-05-09T19:19:07.572Z,15.20
2023-05-09T19:21:35.557Z,15.20
2023-05-09T19:24:04.597Z,15.10
2023-05-09T19:26:31.426Z,15.10
2023-05-09T19:28:58.323Z,15.00
2023-05-09T19:31:25.633Z,15.00
2023-05-09T19:33:52.529Z,15.00
2023-05-09T19:36:20.219Z,14.80
2023-05-09T19:38:46.965Z,14.80
2023-05-09T19:41:13.978Z,14.80
2023-05-09T19:43:41.032Z,14.70
2023-05-09T19:46:08.021Z,14.70
2023-05-09T19:48:35.817Z,14.60
2023-05-09T19:51:02.659Z,14.50
2023-05-09T19:53:29.422Z,14.40
2023-05-09T19:55:56.122Z,14.40
2023-05-09T19:58:22.855Z,14.40
2023-05-09T20:00:49.625Z,14.30
2023-05-09T20:03:16.492Z,14.30
2023-05-09T20:05:55.084Z,14.20
2023-05-09T20:08:21.941Z,14.20
2023-05-09T20:10:48.624Z,14.10
2023-05-09T20:13:15.474Z,14.00
2023-05-09T20:15:42.201Z,14.00
2023-05-09T20:18:09.023Z,13.90
2023-05-09T20:20:35.717Z,13.90
2023-05-09T20:23:02.437Z,13.90
2023-05-09T20:25:29.256Z,13.90
2023-05-09T20:27:55.979Z,13.80
2023-05-09T20:30:22.767Z,13.80
2023-05-09T20:32:49.600Z,13.70
2023-05-09T20:35:16.361Z,13.70
2023-05-09T20:37:43.227Z,13.60
2023-05-09T20:40:10.252Z,13.60
2023-05-09T20:42:37.405Z,13.60
2023-05-09T20:45:04.424Z,13.60
2023-05-09T20:47:31.131Z,13.50
2023-05-09T20:49:58.569Z,13.50
2023-05-09T20:52:25.404Z,13.60
2023-05-09T20:54:52.119Z,13.50
2023-05-09T20:57:18.763Z,13.50
2023-05-09T20:59:45.536Z,13.50
2023-05-09T21:02:12.291Z,13.50
2023-05-09T21:04:38.998Z,13.50
2023-05-09T21:07:05.662Z,13.40
2023-05-09T21:09:32.446Z,13.40
2023-05-09T21:12:00.617Z,13.60
2023-05-09T21:14:29.992Z,13.50
2023-05-09T21:16:58.167Z,13.50
2023-05-09T21:19:25.121Z,13.50
2023-05-09T21:21:51.822Z,13.50
2023-05-09T21:24:18.569Z,13.40
2023-05-09T21:26:45.287Z,13.30
2023-05-09T21:29:12.025Z,13.20
2023-05-09T21:31:38.866Z,13.20
2023-05-09T21:34:09.798Z,13.10
2023-05-09T21:36:38.413Z,13.00
2023-05-09T21:39:08.987Z,13.00
2023-05-09T21:41:37.060Z,13.00
2023-05-09T21:44:04.347Z,13.00
2023-05-09T21:46:33.103Z,12.90
2023-05-09T21:49:00.922Z,12.80
2023-05-09T21:51:28.634Z,12.80
2023-05-09T21:53:55.885Z,12.70
2023-05-09T21:56:22.776Z,12.60
2023-05-09T21:58:49.729Z,12.60
2023-05-09T22:01:18.322Z,12.70
2023-05-09T22:03:45.427Z,12.70
2023-05-09T22:06:13.384Z,12.50
2023-05-09T22:08:40.148Z,12.50
2023-05-09T22:11:07.713Z,12.40
2023-05-09T22:13:36.058Z,12.40
